• Join FlightAware (Why Join?)
  • Login
  • US Flag 
 
06:35PM EST


 

Airport Tracker/Info


-or-


 

Live Flight TrackerFlight Track Log ✈ AWI4026 ✈ 21-Jun-2013 ✈ KDCA - KBDL

Flight Track Log - Related Links

Times and Time Zones

All times are in EDT time to prevent confusion due to time zone crossing. See the AWI4026 flight status page for this flight to view local times or setup timezone preferences in your user account.

Time Position Orientation Groundspeed Altitude Reporting Facility
EDT Latitude Longitude Course Direction KTS MPH feet Rate Location/Type
07:24PM 38.7464 -77.0289 83° East 193 222 3,300  Level Washington Center
07:25PM 38.9525 -76.7257 67° East  Level FlightAware Approximate
07:25PM 38.7264 -76.9542 109° East 173 199 5,600  Level Washington Center
07:26PM 38.9925 -76.6226 67° East  Level FlightAware Approximate
07:26PM 38.7731 -76.8750 53° Northeast 192 221 7,700  Level Washington Center
07:27PM 39.0324 -76.5195 67° East  Level FlightAware Approximate
07:27PM 38.8219 -76.7906 53° Northeast 241 277 9,900  Level Washington Center
07:28PM 39.0737 -76.4169 61° Northeast  Level FlightAware Approximate
07:28PM 38.8728 -76.7061 52° Northeast 284 327 11,700  Level Washington Center
07:29PM 39.1167 -76.3155 90° East  Level FlightAware Approximate
07:29PM 38.9172 -76.6294 53° Northeast 309 356 12,400  Level Washington Center
07:30PM 39.1500 -76.2166 83° East  Level FlightAware Approximate
07:30PM 38.9892 -76.5050 53° Northeast 338 389 14,000  Level Washington Center
07:31PM 39.0483 -76.3989 54° Northeast 356 410 15,300 1,200 Climbing Washington Center
07:32PM 39.1136 -76.2925 52° Northeast 366 421 16,400 1,140 Climbing Washington Center
07:33PM 39.1536 -76.1697 67° East 362 417 17,700 900 Climbing Washington Center
07:34PM 39.1753 -76.0225 79° East 390 449 18,300 840 Climbing Washington Center
07:35PM 39.1944 -75.8836 80° East 390 449 19,500 960 Climbing Washington Center
07:36PM 39.2694 -75.7792 47° Northeast 382 440 20,300 900 Climbing Washington Center
07:37PM 39.3508 -75.6747 45° Northeast 389 448 21,400 1,200 Climbing Washington Center
07:38PM 39.4281 -75.5756 45° Northeast 389 448 22,800 780 Climbing Washington Center
07:39PM 39.5050 -75.4758 45° Northeast 389 448 23,000 60 Climbing Washington Center
07:40PM 39.5842 -75.3761 44° Northeast 389 448 23,000  Level Washington Center
07:41PM 39.6589 -75.2761 46° Northeast 383 441 23,000  Level Washington Center
07:42PM 39.7336 -75.1678 48° Northeast 383 441 23,000  Level Washington Center
07:43PM 39.8083 -75.0622 47° Northeast 401 461 23,000  Level Washington Center
07:44PM 39.8744 -74.9669 48° Northeast 392 451 23,000  Level Washington Center
07:46PM 39.9794 -74.8181 47° Northeast 382 440 23,000  Level New York Center
07:47PM 40.0497 -74.7136 49° Northeast 377 434 23,000  Level New York Center
07:48PM 40.1219 -74.6144 46° Northeast 377 434 23,000  Level New York Center
07:49PM 40.1942 -74.5072 49° Northeast 377 434 23,000  Level New York Center
07:50PM 40.2561 -74.3908 55° Northeast 383 441 23,000  Level New York Center
07:51PM 40.3139 -74.2742 57° Northeast 383 441 23,000  Level New York Center
07:52PM 40.3736 -74.1544 57° Northeast 383 441 23,000 -180 Level New York Center
07:53PM 40.4353 -74.0350 56° Northeast 383 441 22,700 -840 Descending New York Center
07:54PM 40.5264 -73.8517 57° Northeast 386 444 20,800 -1,200 Descending Boston Center
07:55PM 40.5842 -73.7325 57° Northeast 386 444 19,600 -900 Descending Boston Center
07:56PM 40.6436 -73.6133 57° Northeast 386 444 19,000 -300 Descending Boston Center
07:57PM 40.7053 -73.4886 57° Northeast 386 444 19,000  Level Boston Center
07:58PM 40.7647 -73.3636 58° Northeast 391 450 19,000  Level Boston Center
07:59PM 40.8386 -73.2550 48° Northeast 391 450 19,000  Level Boston Center
08:00PM 40.9225 -73.1569 41° Northeast 391 450 19,000 -660 Level Boston Center
08:01PM 41.0044 -73.0589 42° Northeast 386 444 17,700 -1,680 Descending Boston Center
08:02PM 41.0842 -72.9661 41° Northeast 391 450 15,700 -2,160 Descending Boston Center
08:03PM 41.1492 -72.8894 42° Northeast 375 432 14,000 -2,220 Descending Boston Center
08:04PM 41.2014 -72.8292 41° Northeast 368 423 12,600 -1,920 Descending Boston Center
08:04PM 41.2369 -72.7850 43° Northeast 376 433 11,600 -1,080 Descending Boston Center
08:05PM 41.3267 -72.7275 26° Northeast 322 371 11,000 -600 Descending Boston Center
08:06PM 41.4081 -72.7528 347° North 305 351 10,400 -780 Descending Boston Center
08:08PM 41.5350 -72.7561 359° North 289 333 9,200 -1,380 Descending Boston Center
08:09PM 41.6142 -72.7456 North 278 320 7,200 -1,920 Descending Boston Center
08:10PM 41.6872 -72.7375 North 269 310 5,400 -1,140 Descending Boston Center
08:11PM 41.7581 -72.7267 North 259 298 5,000 -240 Descending Boston Center
08:12PM 41.8250 -72.6825 26° Northeast 266 306 5,000 -300 Level Boston Center
08:13PM 41.8625 -72.6214 51° Northeast 206 237 4,500 -900 Descending Boston Center
08:14PM 41.9044 -72.5711 42° Northeast 195 224 3,200 -1,320 Descending Boston Center